createdAt,value
2022-11-14T00:01:13.072Z,99.90
2022-11-14T00:03:40.279Z,99.90
2022-11-14T00:06:08.207Z,99.90
2022-11-14T00:08:35.821Z,99.90
2022-11-14T00:11:03.115Z,99.90
2022-11-14T00:13:29.920Z,99.90
2022-11-14T00:15:56.817Z,99.90
2022-11-14T00:18:24.136Z,99.90
2022-11-14T00:20:52.973Z,99.90
2022-11-14T00:23:21.092Z,99.90
2022-11-14T00:25:48.477Z,99.90
2022-11-14T00:28:15.778Z,99.90
2022-11-14T00:30:47.005Z,99.90
2022-11-14T00:33:19.880Z,99.90
2022-11-14T00:35:54.989Z,99.90
2022-11-14T00:38:22.278Z,99.90
2022-11-14T00:40:49.185Z,99.90
2022-11-14T00:43:15.912Z,99.90
2022-11-14T00:48:14.178Z,99.90
2022-11-14T00:50:42.484Z,99.90
2022-11-14T00:53:09.286Z,99.90
2022-11-14T00:55:36.049Z,99.90
2022-11-14T00:58:02.761Z,99.90
2022-11-14T01:00:29.606Z,99.90
2022-11-14T01:02:58.114Z,99.90
2022-11-14T01:05:26.482Z,99.90
2022-11-14T01:07:54.207Z,99.90
2022-11-14T01:10:21.241Z,99.90
2022-11-14T01:12:48.418Z,99.90
2022-11-14T01:15:15.154Z,99.90
2022-11-14T01:17:42.194Z,99.90
2022-11-14T01:20:09.126Z,99.90
2022-11-14T01:22:35.841Z,99.90
2022-11-14T01:25:02.570Z,99.90
2022-11-14T01:27:32.206Z,99.90
2022-11-14T01:29:59.153Z,99.90
2022-11-14T01:32:27.018Z,99.90
2022-11-14T01:34:53.856Z,99.90
2022-11-14T01:37:20.897Z,99.90
2022-11-14T01:39:47.597Z,99.90
2022-11-14T01:42:14.314Z,99.90
2022-11-14T01:44:52.893Z,99.90
2022-11-14T01:47:28.776Z,99.90
2022-11-14T01:50:00.797Z,99.90
2022-11-14T01:52:39.332Z,99.90
2022-11-14T01:55:09.771Z,99.90
2022-11-14T01:57:44.145Z,99.90
2022-11-14T02:00:12.726Z,99.90
2022-11-14T02:02:39.496Z,99.90
2022-11-14T02:05:11.432Z,99.90
2022-11-14T02:07:41.294Z,99.90
2022-11-14T02:10:20.149Z,99.90
2022-11-14T02:12:47.153Z,99.90
2022-11-14T02:15:15.057Z,99.90
2022-11-14T02:17:44.130Z,99.90
2022-11-14T02:20:11.446Z,99.90
2022-11-14T02:22:42.366Z,99.90
2022-11-14T02:25:13.188Z,99.90
2022-11-14T02:27:41.464Z,99.90
2022-11-14T02:30:23.140Z,99.90
2022-11-14T02:33:10.089Z,99.90
2022-11-14T02:35:36.549Z,99.90
2022-11-14T02:38:03.325Z,99.90
2022-11-14T02:40:30.136Z,99.90
2022-11-14T02:42:56.842Z,99.90
2022-11-14T02:45:23.743Z,99.90
2022-11-14T02:47:50.511Z,99.90
2022-11-14T02:50:18.198Z,99.90
2022-11-14T02:52:47.654Z,99.90
2022-11-14T02:55:14.401Z,99.90
2022-11-14T02:57:41.093Z,99.90
2022-11-14T03:00:13.505Z,99.90
2022-11-14T03:02:41.771Z,99.90
2022-11-14T03:05:08.981Z,99.90
2022-11-14T03:07:35.811Z,99.90
2022-11-14T03:10:03.224Z,99.90
2022-11-14T03:12:30.002Z,99.90
2022-11-14T03:14:56.700Z,99.90
2022-11-14T03:17:24.617Z,99.90
2022-11-14T03:19:51.524Z,99.90
2022-11-14T03:22:18.310Z,99.90
2022-11-14T03:24:45.020Z,99.90
2022-11-14T03:27:11.728Z,99.90
2022-11-14T03:29:38.448Z,99.90
2022-11-14T03:32:05.282Z,99.90
2022-11-14T03:34:32.306Z,99.90
2022-11-14T03:37:00.322Z,99.90
2022-11-14T03:39:27.834Z,99.90
2022-11-14T03:41:54.558Z,99.90
2022-11-14T03:44:21.252Z,99.90
2022-11-14T03:46:48.001Z,99.90
2022-11-14T03:49:14.685Z,99.90
2022-11-14T03:51:41.382Z,99.90
2022-11-14T03:54:08.123Z,99.90
2022-11-14T03:56:34.865Z,99.90
2022-11-14T03:59:01.681Z,99.90
2022-11-14T04:01:29.258Z,99.90
2022-11-14T04:03:56.441Z,99.90
2022-11-14T04:06:23.494Z,99.90
2022-11-14T04:08:51.769Z,99.90
2022-11-14T04:11:19.267Z,99.90
2022-11-14T04:13:46.078Z,99.90
2022-11-14T04:16:12.792Z,99.90
2022-11-14T04:18:39.619Z,99.90
2022-11-14T04:21:06.409Z,99.90
2022-11-14T04:23:33.200Z,99.90
2022-11-14T04:25:59.943Z,99.90
2022-11-14T04:28:26.853Z,99.90
2022-11-14T04:30:53.832Z,99.90
2022-11-14T04:33:20.597Z,99.90
2022-11-14T04:35:48.005Z,99.90
2022-11-14T04:38:14.765Z,99.90
2022-11-14T04:40:47.761Z,99.90
2022-11-14T04:43:14.457Z,99.90
2022-11-14T04:45:41.177Z,99.90
2022-11-14T04:48:07.863Z,99.90
2022-11-14T04:50:34.568Z,99.90
2022-11-14T04:53:01.261Z,99.90
2022-11-14T04:55:27.977Z,99.90
2022-11-14T04:57:56.341Z,99.90
2022-11-14T05:00:24.484Z,99.90
2022-11-14T05:02:51.373Z,99.90
2022-11-14T05:05:18.076Z,99.90
2022-11-14T05:07:44.801Z,99.90
2022-11-14T05:10:11.499Z,99.90
2022-11-14T05:12:38.263Z,99.90
2022-11-14T05:15:05.445Z,99.90
2022-11-14T05:17:32.196Z,99.90
2022-11-14T05:19:58.934Z,99.90
2022-11-14T05:22:25.643Z,99.90
2022-11-14T05:24:52.406Z,99.90
2022-11-14T05:27:19.098Z,99.90
2022-11-14T05:29:45.797Z,99.90
2022-11-14T05:32:16.295Z,99.90
2022-11-14T05:34:43.303Z,99.90
2022-11-14T05:37:10.075Z,99.90
2022-11-14T05:39:36.785Z,99.90
2022-11-14T05:42:03.662Z,99.90
2022-11-14T05:44:30.590Z,99.90
2022-11-14T05:46:57.325Z,99.90
2022-11-14T05:49:24.246Z,99.90
2022-11-14T05:51:51.026Z,99.90
2022-11-14T05:54:17.721Z,99.90
2022-11-14T05:56:44.443Z,99.90
2022-11-14T05:59:11.156Z,99.90
2022-11-14T06:01:37.919Z,99.90
2022-11-14T06:04:06.286Z,99.90
2022-11-14T06:06:33.012Z,99.90
2022-11-14T06:08:59.763Z,99.90
2022-11-14T06:11:26.468Z,99.90
2022-11-14T06:13:53.181Z,99.90
2022-11-14T06:16:20.111Z,99.90
2022-11-14T06:18:47.603Z,99.90
2022-11-14T06:21:21.071Z,99.90
2022-11-14T06:23:48.191Z,99.90
2022-11-14T06:26:25.140Z,99.90
2022-11-14T06:28:53.710Z,99.90
2022-11-14T06:31:21.285Z,99.90
2022-11-14T06:33:48.825Z,99.90
2022-11-14T06:36:16.683Z,99.90
2022-11-14T06:38:44.623Z,99.90
2022-11-14T06:41:17.965Z,99.90
2022-11-14T06:43:49.112Z,99.90
2022-11-14T06:46:19.913Z,99.90
2022-11-14T06:48:48.108Z,99.90
2022-11-14T06:51:16.814Z,99.90
2022-11-14T06:53:44.326Z,99.90
2022-11-14T06:56:15.053Z,99.90
2022-11-14T06:58:48.878Z,99.90
2022-11-14T07:01:22.701Z,99.90
2022-11-14T07:03:50.373Z,99.90
2022-11-14T07:06:24.753Z,99.90
2022-11-14T07:08:56.351Z,99.90
2022-11-14T07:11:35.494Z,99.90
2022-11-14T07:14:04.272Z,99.90
2022-11-14T07:16:36.753Z,99.90
2022-11-14T07:19:09.652Z,99.90
2022-11-14T07:21:37.152Z,99.90
2022-11-14T07:24:04.378Z,99.90
2022-11-14T07:26:31.064Z,99.90
2022-11-14T07:29:02.044Z,99.90
2022-11-14T07:31:29.685Z,99.90
2022-11-14T07:33:56.455Z,99.90
2022-11-14T07:36:23.817Z,99.90
2022-11-14T07:38:50.696Z,99.90
2022-11-14T07:41:18.121Z,98.00
2022-11-14T07:43:45.566Z,92.60
2022-11-14T07:46:17.934Z,85.30
2022-11-14T07:48:45.264Z,77.60
2022-11-14T07:51:30.792Z,70.50
2022-11-14T07:53:57.517Z,66.10
2022-11-14T07:56:25.803Z,61.40
2022-11-14T07:58:52.583Z,59.10
2022-11-14T08:01:19.370Z,56.70
2022-11-14T08:03:46.491Z,54.90
2022-11-14T08:06:16.433Z,54.30
2022-11-14T08:08:43.379Z,53.30
2022-11-14T08:11:10.630Z,52.50
2022-11-14T08:13:37.591Z,51.70
2022-11-14T08:16:12.317Z,52.00
2022-11-14T08:18:40.406Z,52.80
2022-11-14T08:21:07.351Z,54.20
2022-11-14T08:23:34.499Z,55.80
2022-11-14T08:26:01.458Z,58.50
2022-11-14T08:28:29.001Z,61.90
2022-11-14T08:31:04.215Z,65.90
2022-11-14T08:33:31.766Z,71.00
2022-11-14T08:36:05.156Z,76.60
2022-11-14T08:38:34.203Z,79.70
2022-11-14T08:41:02.213Z,83.60
2022-11-14T08:43:31.323Z,87.40
2022-11-14T08:46:02.542Z,90.30
2022-11-14T08:48:32.031Z,92.70
2022-11-14T08:51:04.917Z,93.30
2022-11-14T08:53:32.314Z,95.00
2022-11-14T08:55:59.462Z,95.70
2022-11-14T08:58:33.499Z,96.80
2022-11-14T09:01:07.217Z,97.60
2022-11-14T09:03:34.818Z,98.70
2022-11-14T09:06:02.426Z,99.60
2022-11-14T09:08:30.658Z,99.70
2022-11-14T09:11:05.102Z,99.10
2022-11-14T09:13:34.585Z,98.80
2022-11-14T09:16:01.470Z,99.50
2022-11-14T09:18:29.437Z,98.30
2022-11-14T09:21:05.204Z,98.80
2022-11-14T09:23:33.383Z,97.60
2022-11-14T09:26:09.134Z,97.30
2022-11-14T09:28:36.900Z,96.50
2022-11-14T09:31:12.856Z,96.50
2022-11-14T09:33:40.136Z,96.20
2022-11-14T09:36:15.615Z,94.90
2022-11-14T09:38:44.263Z,94.80
2022-11-14T09:41:36.442Z,94.00
2022-11-14T09:44:39.573Z,93.60
2022-11-14T09:47:19.361Z,93.90
2022-11-14T09:49:52.106Z,92.60
2022-11-14T09:52:35.226Z,92.10
2022-11-14T09:55:36.474Z,91.70
2022-11-14T09:58:05.019Z,91.50
2022-11-14T10:01:11.553Z,90.10
2022-11-14T10:04:09.189Z,90.60
2022-11-14T10:06:54.812Z,90.10
2022-11-14T10:09:39.355Z,90.40
2022-11-14T10:12:22.131Z,90.50
2022-11-14T10:15:16.308Z,90.40
2022-11-14T10:18:15.421Z,90.30
2022-11-14T10:20:50.323Z,90.00
2022-11-14T10:23:38.240Z,89.20
2022-11-14T10:26:16.419Z,88.00
2022-11-14T10:29:17.086Z,88.30
2022-11-14T10:32:23.419Z,86.20
2022-11-14T10:35:04.362Z,85.00
2022-11-14T10:38:00.904Z,85.30
2022-11-14T10:40:44.663Z,83.60
2022-11-14T10:43:32.285Z,82.20
2022-11-14T10:46:18.757Z,82.70
2022-11-14T10:48:49.866Z,81.70
2022-11-14T10:51:28.224Z,80.00
2022-11-14T10:54:17.873Z,78.40
2022-11-14T10:56:50.781Z,76.60
2022-11-14T10:59:18.776Z,76.10
2022-11-14T11:01:58.062Z,76.80
2022-11-14T11:04:31.813Z,75.60
2022-11-14T11:07:07.020Z,75.60
2022-11-14T11:09:55.780Z,74.40
2022-11-14T11:12:46.171Z,73.60
2022-11-14T11:15:20.238Z,71.40
2022-11-14T11:18:02.943Z,71.40
2022-11-14T11:20:31.920Z,70.80
2022-11-14T11:23:11.698Z,69.00
2022-11-14T11:25:40.070Z,69.70
2022-11-14T11:28:18.500Z,66.60
2022-11-14T11:30:56.941Z,66.80
2022-11-14T11:33:36.624Z,66.70
2022-11-14T11:36:18.785Z,66.40
2022-11-14T11:38:47.253Z,63.40
2022-11-14T11:42:07.221Z,62.90
2022-11-14T11:44:19.778Z,63.40
2022-11-14T11:46:59.046Z,63.60
2022-11-14T11:49:53.925Z,63.10
2022-11-14T11:52:34.679Z,62.20
2022-11-14T11:55:28.526Z,61.30
2022-11-14T11:58:22.489Z,61.10
2022-11-14T12:00:55.397Z,60.50
2022-11-14T12:03:25.353Z,59.40
2022-11-14T12:06:25.175Z,59.30
2022-11-14T12:09:22.460Z,58.70
2022-11-14T12:12:10.108Z,58.00
2022-11-14T12:14:51.806Z,58.50
2022-11-14T12:17:30.176Z,57.90
2022-11-14T12:20:14.701Z,56.10
2022-11-14T12:22:59.856Z,58.10
2022-11-14T12:25:47.406Z,58.50
2022-11-14T12:28:46.378Z,59.30
2022-11-14T12:31:16.934Z,58.10
2022-11-14T12:33:56.045Z,60.50
2022-11-14T12:36:31.497Z,59.80
2022-11-14T12:39:01.560Z,59.40
2022-11-14T12:41:36.090Z,60.20
2022-11-14T12:44:36.899Z,59.50
2022-11-14T12:47:06.647Z,59.10
2022-11-14T12:49:48.850Z,58.20
2022-11-14T12:52:40.383Z,58.70
2022-11-14T12:55:25.318Z,59.00
2022-11-14T12:58:09.681Z,59.80
2022-11-14T13:00:46.257Z,59.30
2022-11-14T13:03:49.165Z,58.70
2022-11-14T13:07:07.652Z,58.10
2022-11-14T13:09:58.386Z,59.60
2022-11-14T13:12:53.306Z,58.30
2022-11-14T13:15:54.726Z,58.80
2022-11-14T13:18:45.669Z,58.90
2022-11-14T13:21:39.747Z,59.00
2022-11-14T13:24:19.137Z,59.90
2022-11-14T13:26:49.981Z,58.70
2022-11-14T13:29:41.367Z,59.10
2022-11-14T13:32:12.069Z,57.60
2022-11-14T13:35:04.349Z,55.70
2022-11-14T13:37:58.762Z,52.20
2022-11-14T13:40:59.132Z,48.10
2022-11-14T13:43:46.978Z,43.00
2022-11-14T13:46:46.986Z,38.00
2022-11-14T13:49:40.182Z,34.40
2022-11-14T13:52:06.875Z,33.40
2022-11-14T13:54:34.369Z,33.50
2022-11-14T13:57:28.104Z,32.60
2022-11-14T14:00:18.388Z,31.40
2022-11-14T14:03:07.232Z,30.90
2022-11-14T14:06:01.142Z,30.00
2022-11-14T14:09:09.512Z,30.10
2022-11-14T14:12:07.882Z,28.90
2022-11-14T14:14:59.752Z,27.60
2022-11-14T14:17:57.358Z,29.10
2022-11-14T14:20:37.602Z,29.70
2022-11-14T14:23:16.543Z,31.80
2022-11-14T14:25:55.245Z,36.00
2022-11-14T14:29:03.675Z,40.00
2022-11-14T14:31:41.763Z,44.40
2022-11-14T14:34:31.273Z,48.30
2022-11-14T14:36:58.686Z,51.00
2022-11-14T14:39:28.561Z,53.30
2022-11-14T14:41:58.533Z,54.90
2022-11-14T14:44:39.817Z,56.50
2022-11-14T14:47:41.383Z,57.80
2022-11-14T14:50:26.411Z,59.40
2022-11-14T14:53:04.022Z,60.60
2022-11-14T14:55:34.329Z,62.00
2022-11-14T14:58:22.873Z,63.10
2022-11-14T15:01:00.053Z,64.30
2022-11-14T15:03:40.819Z,65.20
2022-11-14T15:06:38.149Z,66.00
2022-11-14T15:09:07.609Z,67.00
2022-11-14T15:11:39.316Z,68.10
2022-11-14T15:14:07.108Z,69.10
2022-11-14T15:16:34.127Z,70.60
2022-11-14T15:19:01.662Z,70.40
2022-11-14T15:21:30.610Z,71.20
2022-11-14T15:24:18.373Z,72.00
2022-11-14T15:26:50.802Z,73.50
2022-11-14T15:29:24.779Z,74.30
2022-11-14T15:31:58.683Z,75.00
2022-11-14T15:34:26.870Z,75.90
2022-11-14T15:37:16.060Z,76.60
2022-11-14T15:39:43.783Z,77.90
2022-11-14T15:42:26.353Z,79.00
2022-11-14T15:44:53.949Z,79.90
2022-11-14T15:47:29.364Z,80.80
2022-11-14T15:50:13.585Z,81.70
2022-11-14T15:52:56.678Z,82.70
2022-11-14T15:55:24.597Z,84.00
2022-11-14T15:58:00.989Z,85.30
2022-11-14T16:00:53.244Z,86.20
2022-11-14T16:03:22.892Z,87.20
2022-11-14T16:05:49.611Z,88.60
2022-11-14T16:08:16.355Z,89.40
2022-11-14T16:10:43.069Z,90.20
2022-11-14T16:13:13.280Z,90.90
2022-11-14T16:15:40.042Z,91.50
2022-11-14T16:18:06.831Z,91.90
2022-11-14T16:20:37.808Z,92.30
2022-11-14T16:23:05.829Z,92.70
2022-11-14T16:25:33.233Z,93.10
2022-11-14T16:27:59.960Z,93.70
2022-11-14T16:30:26.734Z,94.20
2022-11-14T16:32:53.481Z,94.70
2022-11-14T16:35:26.737Z,95.30
2022-11-14T16:37:55.688Z,95.80
2022-11-14T16:40:27.401Z,96.60
2022-11-14T16:42:56.369Z,97.70
2022-11-14T16:45:24.392Z,98.40
2022-11-14T16:47:51.195Z,98.80
2022-11-14T16:50:19.417Z,99.10
2022-11-14T16:52:46.143Z,99.40
2022-11-14T16:55:13.537Z,99.90
2022-11-14T16:57:40.728Z,99.90
2022-11-14T17:00:12.724Z,99.90
2022-11-14T17:02:43.286Z,99.90
2022-11-14T17:05:10.182Z,99.90
2022-11-14T17:07:37.013Z,99.90
2022-11-14T17:10:05.497Z,99.90
2022-11-14T17:12:50.999Z,99.90
2022-11-14T17:15:36.825Z,99.90
2022-11-14T17:18:03.798Z,99.90
2022-11-14T17:20:31.108Z,99.90
2022-11-14T17:22:57.941Z,99.90
2022-11-14T17:25:24.858Z,99.90
2022-11-14T17:27:51.788Z,99.90
2022-11-14T17:30:18.708Z,99.90
2022-11-14T17:32:45.484Z,99.90
2022-11-14T17:35:12.221Z,99.90
2022-11-14T17:37:38.958Z,99.90
2022-11-14T17:40:10.120Z,99.90
2022-11-14T17:42:38.232Z,99.90
2022-11-14T17:45:05.392Z,99.90
2022-11-14T17:47:32.214Z,99.90
2022-11-14T17:49:58.971Z,99.90
2022-11-14T17:52:28.243Z,99.90
2022-11-14T17:54:54.951Z,99.90
2022-11-14T17:57:21.666Z,99.90
2022-11-14T17:59:48.427Z,99.90
2022-11-14T18:02:17.442Z,99.90
2022-11-14T18:04:44.270Z,99.90
2022-11-14T18:07:11.785Z,99.90
2022-11-14T18:09:39.110Z,99.90
2022-11-14T18:12:06.136Z,99.90
2022-11-14T18:14:32.842Z,99.90
2022-11-14T18:17:12.486Z,99.90
2022-11-14T18:19:40.223Z,99.90
2022-11-14T18:22:06.981Z,99.90
2022-11-14T18:24:33.679Z,99.90
2022-11-14T18:27:00.408Z,99.90
2022-11-14T18:29:28.300Z,99.90
2022-11-14T18:31:55.206Z,99.90
2022-11-14T18:34:21.941Z,99.90
2022-11-14T18:36:48.707Z,99.90
2022-11-14T18:39:15.422Z,99.90
2022-11-14T18:41:42.122Z,99.90
2022-11-14T18:44:08.858Z,99.90
2022-11-14T18:46:37.630Z,99.90
2022-11-14T18:49:04.479Z,99.90
2022-11-14T18:51:31.787Z,99.90
2022-11-14T18:54:01.650Z,99.90
2022-11-14T18:56:28.363Z,99.90
2022-11-14T18:58:57.060Z,99.90
2022-11-14T19:01:29.088Z,99.90
2022-11-14T19:04:06.513Z,99.90
2022-11-14T19:06:36.457Z,99.90
2022-11-14T19:09:18.063Z,99.90
2022-11-14T19:12:03.749Z,99.90
2022-11-14T19:14:30.499Z,99.90
2022-11-14T19:16:57.256Z,99.90
2022-11-14T19:19:23.984Z,99.90
2022-11-14T19:21:51.266Z,99.90
2022-11-14T19:24:18.678Z,99.90
2022-11-14T19:26:45.460Z,99.90
2022-11-14T19:29:15.054Z,99.90
2022-11-14T19:31:43.137Z,99.90
2022-11-14T19:34:10.198Z,99.90
2022-11-14T19:39:24.105Z,99.90
2022-11-14T19:41:50.892Z,99.90
2022-11-14T19:44:17.614Z,99.90
2022-11-14T19:46:47.487Z,99.90
2022-11-14T19:49:15.256Z,99.90
2022-11-14T19:51:42.254Z,99.90
2022-11-14T19:54:11.102Z,99.90
2022-11-14T19:56:37.894Z,99.90
2022-11-14T19:59:09.690Z,99.90
2022-11-14T20:01:42.022Z,99.90
2022-11-14T20:04:13.029Z,99.90
2022-11-14T20:06:41.445Z,99.90
2022-11-14T20:09:10.784Z,99.90
2022-11-14T20:11:38.020Z,99.90
2022-11-14T20:14:05.745Z,99.90
2022-11-14T20:16:37.307Z,99.90
2022-11-14T20:19:04.533Z,99.90
2022-11-14T20:21:33.988Z,99.90
2022-11-14T20:24:01.216Z,99.90
2022-11-14T20:26:28.072Z,99.90
2022-11-14T20:33:58.566Z,99.90
2022-11-14T20:36:31.903Z,99.90
2022-11-14T20:39:06.053Z,99.90
2022-11-14T20:41:33.480Z,99.90
2022-11-14T20:44:02.126Z,99.90
2022-11-14T20:46:29.025Z,99.90
2022-11-14T20:48:56.881Z,99.90
2022-11-14T20:51:25.802Z,99.90
2022-11-14T20:53:55.459Z,99.90
2022-11-14T20:56:23.114Z,99.90
2022-11-14T20:58:53.865Z,99.90
2022-11-14T21:01:21.460Z,99.90
2022-11-14T21:03:48.887Z,99.90
2022-11-14T21:06:16.858Z,99.90
2022-11-14T21:08:44.316Z,99.90
2022-11-14T21:11:18.080Z,99.90
2022-11-14T21:13:57.636Z,99.90
2022-11-14T21:16:32.250Z,99.90
2022-11-14T21:19:00.635Z,99.90
2022-11-14T21:21:30.300Z,99.90
2022-11-14T21:23:57.436Z,99.90
2022-11-14T21:26:27.984Z,99.90
2022-11-14T21:29:03.496Z,99.90
2022-11-14T21:31:39.709Z,99.90
2022-11-14T21:34:16.604Z,99.90
2022-11-14T21:36:45.539Z,99.90
2022-11-14T21:39:14.688Z,99.90
2022-11-14T21:41:42.785Z,99.90
2022-11-14T21:44:13.632Z,99.90
2022-11-14T21:46:40.804Z,99.90
2022-11-14T21:49:08.030Z,99.90
2022-11-14T21:51:35.068Z,99.90
2022-11-14T21:54:06.220Z,99.90
2022-11-14T21:56:35.299Z,99.90
2022-11-14T21:59:13.891Z,99.90
2022-11-14T22:02:03.249Z,99.90
2022-11-14T22:04:31.245Z,99.90
2022-11-14T22:06:59.253Z,99.90
2022-11-14T22:09:30.044Z,99.90
2022-11-14T22:11:57.039Z,99.90
2022-11-14T22:14:24.419Z,99.90
2022-11-14T22:16:51.364Z,99.90
2022-11-14T22:19:18.784Z,99.90
2022-11-14T22:21:45.679Z,99.90
2022-11-14T22:24:12.399Z,99.90
2022-11-14T22:26:40.294Z,99.90
2022-11-14T22:29:08.000Z,99.90
2022-11-14T22:31:35.478Z,99.90
2022-11-14T22:34:02.209Z,99.90
2022-11-14T22:36:29.164Z,99.90
2022-11-14T22:38:57.281Z,99.90
2022-11-14T22:41:32.807Z,99.90
2022-11-14T22:44:01.437Z,99.90
2022-11-14T22:46:28.784Z,99.90
2022-11-14T22:48:56.097Z,99.90
2022-11-14T22:51:26.166Z,99.90
2022-11-14T22:53:57.951Z,99.90
2022-11-14T22:56:29.538Z,99.90
2022-11-14T22:58:58.985Z,99.90
2022-11-14T23:01:32.075Z,99.90
2022-11-14T23:04:04.962Z,99.90
2022-11-14T23:06:34.304Z,99.90
2022-11-14T23:09:02.182Z,99.90
2022-11-14T23:11:32.895Z,99.90
2022-11-14T23:14:01.258Z,99.90
2022-11-14T23:16:33.252Z,99.90
2022-11-14T23:19:03.818Z,99.90
2022-11-14T23:21:35.485Z,99.90
2022-11-14T23:24:06.171Z,99.90
2022-11-14T23:26:33.500Z,99.90
2022-11-14T23:29:01.017Z,99.90
2022-11-14T23:31:27.938Z,99.90
2022-11-14T23:33:57.656Z,99.90
2022-11-14T23:36:25.051Z,99.90
2022-11-14T23:38:53.346Z,99.90
2022-11-14T23:41:27.715Z,99.90
2022-11-14T23:43:54.546Z,99.90
2022-11-14T23:46:21.374Z,99.90
2022-11-14T23:48:48.669Z,99.90
2022-11-14T23:51:15.462Z,99.90
2022-11-14T23:53:46.739Z,99.90
2022-11-14T23:56:14.725Z,99.90
2022-11-14T23:58:42.039Z,99.90
